Terminal Aerodrome Forecast
Issued by NWS

Home | Current Version | Previous Version | Text Only | Print | Product List | Glossary Off
Versions: 1 2 3 4 5 6 7 8 9 10 11 12 13 14 15 16 17 18 19

000
FTUS43 KBIS 280600 AAA
TAFMOT
TAF AMD
KMOT 280619Z 2806/2906 32003KT P6SM SCT180 BKN220
     FM281100 33006KT P6SM FEW018 SCT200
      TEMPO 2813/2815 SCT005 BKN015
     FM281500 33011KT P6SM VCSH BKN007 OVC011
     FM281800 32016G22KT P6SM -SHSN OVC009
     FM282000 31021G29KT P6SM -SHSN SCT009 OVC012=

USA.gov is the U.S. government's official web portal to all federal, state and local government web resources and services.